Time;durP1;ratioP1;P1;durP2;ratioP2;P2;SDS_P1;SDS_P2;PMS_P1;PMS_P2;Temp;Humidity;BMP_temperature;BMP_pressure;BME280_temperature;BME280_humidity;BME280_pressure;Samples;Min_cycle;Max_cycle;Signal;HPM_P1;HPM_P2
2022/07/14 00:02:12;;;;;;;14.48;2.60;;;12.90;99.90;;;;;;5057441;28;20144;-69
2022/07/14 00:04:38;;;;;;;16.88;2.67;;;12.90;99.90;;;;;;5054369;28;20056;-71
2022/07/14 00:07:04;;;;;;;16.38;2.70;;;12.90;99.90;;;;;;5056277;28;20036;-69
2022/07/14 00:09:29;;;;;;;15.88;2.80;;;12.90;99.90;;;;;;5059929;28;20032;-70
2022/07/14 00:11:55;;;;;;;12.52;2.80;;;12.80;99.90;;;;;;5058899;28;20044;-69
2022/07/14 00:14:21;;;;;;;14.13;2.85;;;12.80;99.90;;;;;;5055883;28;20053;-68
2022/07/14 00:16:46;;;;;;;12.57;3.08;;;12.90;99.90;;;;;;5039588;28;20055;-71
2022/07/14 00:19:12;;;;;;;15.38;3.00;;;12.80;99.90;;;;;;5055845;28;20074;-71
2022/07/14 00:21:38;;;;;;;13.00;2.55;;;12.70;99.90;;;;;;5056716;28;20559;-69
2022/07/14 00:24:04;;;;;;;16.15;2.60;;;12.80;99.90;;;;;;5054671;28;20438;-71
2022/07/14 00:26:30;;;;;;;17.90;3.05;;;12.70;99.90;;;;;;5055501;28;20048;-71
2022/07/14 00:28:55;;;;;;;17.88;3.40;;;12.70;99.90;;;;;;5053225;28;20101;-70
2022/07/14 00:31:21;;;;;;;13.48;2.47;;;12.60;99.90;;;;;;5056969;28;20028;-69
2022/07/14 00:33:47;;;;;;;16.23;2.80;;;12.60;99.90;;;;;;5054491;28;20040;-69
2022/07/14 00:36:13;;;;;;;14.73;2.42;;;12.60;99.90;;;;;;5055652;28;20647;-69
2022/07/14 00:38:38;;;;;;;15.25;2.70;;;12.60;99.90;;;;;;5059182;28;20063;-69
2022/07/14 00:41:05;;;;;;;14.65;2.75;;;12.60;99.90;;;;;;5055100;28;20048;-69
2022/07/14 00:43:30;;;;;;;16.23;2.88;;;12.60;99.90;;;;;;5056814;28;20040;-69
2022/07/14 00:45:56;;;;;;;14.55;2.80;;;12.50;99.90;;;;;;5055446;28;20055;-69
2022/07/14 00:48:24;;;;;;;18.38;2.65;;;12.50;99.90;;;;;;5054280;28;20045;-71
2022/07/14 00:50:51;;;;;;;16.90;2.85;;;12.50;99.90;;;;;;5058370;28;20052;-69
2022/07/14 00:53:16;;;;;;;15.65;2.50;;;12.50;99.90;;;;;;5034847;28;20036;-70
2022/07/14 00:55:43;;;;;;;12.98;3.00;;;12.50;99.90;;;;;;5055699;28;20074;-71
2022/07/14 00:58:11;;;;;;;16.10;2.80;;;12.50;99.90;;;;;;5052269;28;20115;-69
2022/07/14 01:00:37;;;;;;;14.15;2.75;;;12.60;99.90;;;;;;5054401;28;20094;-69
2022/07/14 01:03:03;;;;;;;16.83;2.42;;;12.50;99.90;;;;;;5033238;28;20050;-71
2022/07/14 01:05:28;;;;;;;14.95;2.53;;;12.50;99.90;;;;;;5051049;28;20045;-69
2022/07/14 01:07:54;;;;;;;17.20;2.90;;;12.50;99.90;;;;;;5053729;28;20044;-68
2022/07/14 01:10:20;;;;;;;14.00;2.75;;;12.40;99.90;;;;;;5056275;28;20137;-70
2022/07/14 01:12:47;;;;;;;15.73;3.15;;;12.40;99.90;;;;;;5051803;28;20072;-69
2022/07/14 01:15:19;;;;;;;13.85;3.40;;;12.40;99.90;;;;;;5051543;28;20052;-69
2022/07/14 01:17:49;;;;;;;21.13;3.50;;;12.30;99.90;;;;;;5037930;28;20672;-69
2022/07/14 01:20:16;;;;;;;18.15;3.05;;;12.40;99.90;;;;;;5038468;28;20040;-68
2022/07/14 01:22:43;;;;;;;13.88;2.67;;;12.30;99.90;;;;;;5051835;28;20298;-73
2022/07/14 01:25:10;;;;;;;11.32;2.72;;;12.30;99.90;;;;;;5052155;28;20498;-68
2022/07/14 01:27:36;;;;;;;12.77;3.00;;;12.30;99.90;;;;;;5050557;28;20557;-69
2022/07/14 01:30:04;;;;;;;15.23;3.10;;;12.20;99.90;;;;;;5052235;28;20123;-69
2022/07/14 01:32:29;;;;;;;15.02;3.10;;;12.20;99.90;;;;;;5054803;28;20598;-69
2022/07/14 01:34:55;;;;;;;13.30;3.10;;;12.10;99.90;;;;;;5035759;28;20082;-70
2022/07/14 01:37:22;;;;;;;14.52;3.38;;;12.10;99.90;;;;;;5054394;28;20091;-68
2022/07/14 01:39:48;;;;;;;12.85;3.53;;;12.10;99.90;;;;;;5051365;28;20607;-68
2022/07/14 01:42:13;;;;;;;17.25;3.53;;;12.10;99.90;;;;;;5055030;28;20583;-71
2022/07/14 01:44:39;;;;;;;9.57;2.58;;;12.00;99.90;;;;;;5054286;28;20045;-69
2022/07/14 01:47:05;;;;;;;12.50;3.30;;;12.00;99.90;;;;;;5052309;28;20044;-69
2022/07/14 01:49:31;;;;;;;15.93;3.72;;;12.00;99.90;;;;;;5053756;28;20049;-68
2022/07/14 01:51:57;;;;;;;15.30;3.88;;;12.00;99.90;;;;;;5056026;28;20051;-69
2022/07/14 01:54:24;;;;;;;10.65;3.72;;;11.90;99.90;;;;;;5052475;28;20044;-69
2022/07/14 01:56:50;;;;;;;13.00;3.55;;;11.90;99.90;;;;;;5052971;28;20056;-68
2022/07/14 01:59:16;;;;;;;14.10;3.47;;;12.00;99.90;;;;;;5051651;28;20053;-69
2022/07/14 02:01:42;;;;;;;13.82;4.05;;;12.00;99.90;;;;;;5032825;28;20159;-68
2022/07/14 02:04:13;;;;;;;15.52;4.07;;;11.90;99.90;;;;;;5054343;28;20098;-72
2022/07/14 02:06:48;;;;;;;17.00;3.80;;;11.90;99.90;;;;;;5056316;28;20047;-69
2022/07/14 02:09:14;;;;;;;16.40;4.43;;;11.90;99.90;;;;;;5052717;28;20519;-69
2022/07/14 02:14:25;;;;;;;16.80;4.28;;;11.90;99.90;;;;;;5056055;28;20571;-70
2022/07/14 02:16:50;;;;;;;15.90;4.20;;;11.90;99.90;;;;;;5069663;28;20040;-71
2022/07/14 02:19:16;;;;;;;15.90;4.40;;;11.80;99.90;;;;;;5056294;28;20448;-69
2022/07/14 02:21:42;;;;;;;13.85;4.35;;;11.80;99.90;;;;;;5057101;28;20758;-68
2022/07/14 02:24:09;;;;;;;15.73;4.40;;;11.80;99.90;;;;;;5053724;28;20024;-71
2022/07/14 02:26:36;;;;;;;16.10;4.57;;;11.80;99.90;;;;;;5053641;28;20055;-69
2022/07/14 02:29:04;;;;;;;15.60;4.90;;;11.80;99.90;;;;;;5053412;28;20047;-69
2022/07/14 02:31:31;;;;;;;19.48;5.40;;;11.80;99.90;;;;;;5034269;28;20132;-68
2022/07/14 02:33:57;;;;;;;17.42;4.85;;;11.70;99.90;;;;;;5055872;28;20135;-69
2022/07/14 02:36:23;;;;;;;20.15;5.00;;;11.70;99.90;;;;;;5035154;28;20046;-70
2022/07/14 02:38:49;;;;;;;19.30;4.80;;;11.70;99.90;;;;;;5055473;28;20050;-70
2022/07/14 02:41:15;;;;;;;17.73;5.22;;;11.60;99.90;;;;;;5049595;28;20032;-69
2022/07/14 02:43:41;;;;;;;20.23;4.53;;;11.60;99.90;;;;;;5054977;28;20051;-69
2022/07/14 02:46:06;;;;;;;16.95;5.68;;;11.60;99.90;;;;;;5056522;28;20364;-68
2022/07/14 02:48:32;;;;;;;16.13;4.82;;;11.60;99.90;;;;;;5058353;28;20120;-70
2022/07/14 02:51:04;;;;;;;15.23;4.72;;;11.60;99.90;;;;;;5057712;28;20034;-70
2022/07/14 02:53:31;;;;;;;21.63;5.28;;;11.50;99.90;;;;;;5059639;28;20353;-70
2022/07/14 02:55:57;;;;;;;15.50;5.15;;;11.50;99.90;;;;;;5056735;28;20060;-69
2022/07/14 02:58:24;;;;;;;18.73;5.88;;;11.40;99.90;;;;;;5055655;28;20064;-70
2022/07/14 03:00:50;;;;;;;15.18;4.55;;;11.40;99.90;;;;;;5060101;28;20105;-68
2022/07/14 03:03:16;;;;;;;21.17;5.20;;;11.40;99.90;;;;;;5041930;28;20064;-70
2022/07/14 03:05:42;;;;;;;15.80;4.95;;;11.40;99.90;;;;;;5057274;28;20067;-71
2022/07/14 03:08:08;;;;;;;16.17;4.82;;;11.30;99.90;;;;;;5041544;28;20040;-69
2022/07/14 03:10:34;;;;;;;17.23;4.05;;;11.30;99.90;;;;;;5039283;28;20059;-70
2022/07/14 03:13:00;;;;;;;15.23;4.35;;;11.30;99.90;;;;;;5053375;28;20044;-69
2022/07/14 03:15:26;;;;;;;15.45;4.75;;;11.40;99.90;;;;;;5071991;28;20127;-71
2022/07/14 03:17:52;;;;;;;13.05;4.47;;;11.40;99.90;;;;;;5057079;28;20144;-68
2022/07/14 03:20:17;;;;;;;15.00;4.63;;;11.40;99.90;;;;;;5056231;28;20044;-70
2022/07/14 03:22:43;;;;;;;16.65;4.75;;;11.40;99.90;;;;;;5041361;28;20043;-69
2022/07/14 03:25:09;;;;;;;16.38;5.45;;;11.40;99.90;;;;;;5053892;28;20190;-69
2022/07/14 03:27:35;;;;;;;20.88;4.68;;;11.40;99.90;;;;;;5053796;28;20047;-69
2022/07/14 03:30:05;;;;;;;18.70;5.38;;;11.40;99.90;;;;;;5069506;28;20643;-69
2022/07/14 03:32:31;;;;;;;16.45;4.63;;;11.40;99.90;;;;;;5054503;28;20576;-68
2022/07/14 03:34:57;;;;;;;14.55;4.72;;;11.40;99.90;;;;;;5056971;28;20036;-70
2022/07/14 03:37:23;;;;;;;19.88;5.13;;;11.40;99.90;;;;;;5054602;28;20558;-68
2022/07/14 03:39:49;;;;;;;17.42;5.00;;;11.40;99.90;;;;;;5052719;28;20048;-70
2022/07/14 03:42:15;;;;;;;14.32;5.03;;;11.40;99.90;;;;;;5057914;28;20044;-68
2022/07/14 03:44:41;;;;;;;17.02;6.10;;;11.40;99.90;;;;;;5054394;28;20455;-69
2022/07/14 03:47:07;;;;;;;14.02;5.60;;;11.40;99.90;;;;;;5036852;28;20084;-69
2022/07/14 03:49:33;;;;;;;13.65;4.97;;;11.40;99.90;;;;;;5051367;28;20635;-69
2022/07/14 03:51:59;;;;;;;14.48;5.20;;;11.40;99.90;;;;;;5052082;28;20044;-69
2022/07/14 03:54:24;;;;;;;15.43;5.25;;;11.50;99.90;;;;;;5054835;28;20434;-69
2022/07/14 03:56:50;;;;;;;16.70;5.07;;;11.50;99.90;;;;;;5052179;28;20050;-69
2022/07/14 03:59:16;;;;;;;17.83;4.88;;;11.50;99.90;;;;;;5054937;28;20056;-70
2022/07/14 04:01:42;;;;;;;14.93;4.95;;;11.50;99.90;;;;;;5039216;28;20052;-68
2022/07/14 04:04:07;;;;;;;18.85;5.53;;;11.50;99.90;;;;;;5056874;28;20424;-69
2022/07/14 04:06:33;;;;;;;13.88;4.85;;;11.60;99.90;;;;;;5054535;28;20110;-70
2022/07/14 04:09:00;;;;;;;15.95;4.88;;;11.50;99.90;;;;;;5056030;28;20687;-66
2022/07/14 04:11:26;;;;;;;14.05;5.10;;;11.60;99.90;;;;;;5054268;28;20146;-70
2022/07/14 04:13:52;;;;;;;10.98;4.38;;;11.60;99.90;;;;;;5059025;28;20523;-69
2022/07/14 04:16:17;;;;;;;13.23;4.63;;;11.60;99.90;;;;;;5054216;28;20093;-71
2022/07/14 04:18:43;;;;;;;16.02;4.97;;;11.60;99.90;;;;;;5054722;28;20045;-70
2022/07/14 04:21:09;;;;;;;14.75;4.65;;;11.70;99.90;;;;;;5056645;28;20823;-69
2022/07/14 04:23:35;;;;;;;13.20;4.10;;;11.70;99.90;;;;;;5054109;28;20051;-69
2022/07/14 04:26:02;;;;;;;12.52;4.20;;;11.70;99.90;;;;;;5054041;28;20641;-68
2022/07/14 04:28:28;;;;;;;13.45;4.43;;;11.70;99.90;;;;;;5068154;28;20040;-69
2022/07/14 04:30:54;;;;;;;16.40;4.80;;;11.80;99.90;;;;;;5049707;28;20543;-69
2022/07/14 04:33:20;;;;;;;12.02;4.07;;;11.80;99.90;;;;;;5038646;28;20109;-68
2022/07/14 04:35:46;;;;;;;12.07;4.20;;;11.80;99.90;;;;;;5037610;28;20040;-71
2022/07/14 04:38:11;;;;;;;16.13;3.72;;;12.00;99.90;;;;;;5052406;28;20038;-69
2022/07/14 04:40:38;;;;;;;12.38;3.50;;;12.00;99.90;;;;;;5034238;28;20135;-69
2022/07/14 04:43:04;;;;;;;13.20;3.40;;;12.10;99.90;;;;;;5055514;28;20044;-70
2022/07/14 04:45:30;;;;;;;13.05;3.20;;;12.10;99.90;;;;;;5055923;28;20128;-69
2022/07/14 04:47:56;;;;;;;11.77;3.20;;;12.20;99.90;;;;;;5035074;28;20090;-70
2022/07/14 04:53:06;;;;;;;11.60;3.10;;;12.40;99.90;;;;;;5055473;28;20043;-68
2022/07/14 04:55:32;;;;;;;10.57;2.50;;;12.40;99.90;;;;;;5032292;28;20044;-67
2022/07/14 04:57:57;;;;;;;8.90;2.50;;;12.50;99.90;;;;;;5052722;28;20082;-68
2022/07/14 05:00:23;;;;;;;8.98;2.58;;;12.60;99.90;;;;;;5036577;28;20109;-71
2022/07/14 05:02:48;;;;;;;12.27;2.65;;;12.70;99.90;;;;;;5055070;28;20048;-69
2022/07/14 05:05:14;;;;;;;11.95;2.33;;;12.70;99.90;;;;;;5055970;28;20036;-70
2022/07/14 05:07:40;;;;;;;6.82;1.73;;;12.80;99.90;;;;;;5054027;28;20256;-69
2022/07/14 05:10:06;;;;;;;12.00;2.88;;;12.90;99.90;;;;;;5050133;28;20049;-68
2022/07/14 05:12:33;;;;;;;12.85;2.20;;;12.90;99.90;;;;;;5053001;28;20087;-69
2022/07/14 05:14:59;;;;;;;7.32;1.67;;;13.00;99.90;;;;;;5054320;28;20050;-69
2022/07/14 05:17:24;;;;;;;7.82;1.70;;;13.00;99.90;;;;;;5051727;28;20048;-68
2022/07/14 05:19:51;;;;;;;7.60;1.10;;;13.10;99.90;;;;;;5052989;28;20055;-70
2022/07/14 05:22:17;;;;;;;7.68;1.60;;;13.20;99.90;;;;;;5035859;28;20147;-70
2022/07/14 05:24:43;;;;;;;8.60;1.50;;;13.40;99.90;;;;;;5052744;28;20044;-69
2022/07/14 05:27:09;;;;;;;9.55;1.40;;;13.40;99.90;;;;;;5054127;28;20032;-69
2022/07/14 05:29:35;;;;;;;8.25;1.40;;;13.50;99.90;;;;;;5056320;28;20052;-67
2022/07/14 05:32:01;;;;;;;8.10;1.13;;;13.70;99.90;;;;;;5057123;28;20816;-70
2022/07/14 05:34:27;;;;;;;9.82;1.10;;;13.90;99.90;;;;;;5055800;28;20068;-69
2022/07/14 05:36:53;;;;;;;7.57;0.93;;;14.40;99.90;;;;;;5052262;28;20047;-69
2022/07/14 05:39:18;;;;;;;4.93;0.68;;;14.80;99.90;;;;;;5051303;28;20057;-72
2022/07/14 05:41:44;;;;;;;7.80;0.90;;;15.20;99.90;;;;;;5047666;28;20102;-70
2022/07/14 05:44:10;;;;;;;8.43;0.98;;;15.60;99.90;;;;;;5031190;28;20059;-70
2022/07/14 05:46:36;;;;;;;7.18;1.25;;;15.80;99.90;;;;;;5069215;28;20445;-68
2022/07/14 05:49:01;;;;;;;6.18;1.13;;;16.10;99.90;;;;;;5050567;28;20044;-72
2022/07/14 05:51:27;;;;;;;7.25;1.20;;;16.20;99.90;;;;;;5053691;28;20052;-70
2022/07/14 05:53:53;;;;;;;6.55;0.80;;;16.30;99.90;;;;;;5051388;28;20206;-70
2022/07/14 05:56:18;;;;;;;4.47;0.60;;;16.50;99.90;;;;;;5067418;28;20067;-69
2022/07/14 05:58:45;;;;;;;7.30;0.63;;;16.60;99.90;;;;;;5051129;28;20040;-70
2022/07/14 06:01:12;;;;;;;3.20;0.73;;;16.70;99.90;;;;;;5057380;28;20131;-70
2022/07/14 06:03:38;;;;;;;6.57;1.05;;;16.70;99.90;;;;;;5053395;28;20313;-68
2022/07/14 06:06:06;;;;;;;6.38;0.50;;;17.00;99.90;;;;;;5035014;28;20092;-69
2022/07/14 06:08:32;;;;;;;4.85;0.52;;;17.00;99.90;;;;;;5036330;28;20533;-70
2022/07/14 06:10:59;;;;;;;5.28;0.45;;;17.10;99.90;;;;;;5053835;28;20082;-71
2022/07/14 06:13:29;;;;;;;5.82;0.65;;;17.20;99.90;;;;;;5052646;28;20028;-69
2022/07/14 06:15:56;;;;;;;3.78;0.50;;;17.30;99.90;;;;;;5054348;28;20044;-73
2022/07/14 06:18:22;;;;;;;4.18;0.20;;;17.40;99.90;;;;;;5055263;28;20079;-69
2022/07/14 06:20:48;;;;;;;4.65;0.57;;;17.50;99.90;;;;;;5055095;28;20507;-69
2022/07/14 06:23:15;;;;;;;5.43;0.50;;;17.70;99.90;;;;;;5059527;28;20076;-68
2022/07/14 06:25:42;;;;;;;3.65;0.57;;;17.70;99.90;;;;;;5056578;28;20071;-70
2022/07/14 06:28:08;;;;;;;4.68;0.30;;;17.80;99.90;;;;;;5068575;28;20040;-72
2022/07/14 06:30:34;;;;;;;4.60;0.52;;;17.90;99.90;;;;;;5066097;28;21350;-68
2022/07/14 06:33:01;;;;;;;3.63;0.30;;;18.00;99.90;;;;;;5060392;28;20084;-69
2022/07/14 06:35:27;;;;;;;4.72;0.30;;;18.10;99.90;;;;;;5060682;28;20038;-70
2022/07/14 06:37:54;;;;;;;3.50;0.20;;;18.20;99.90;;;;;;5061386;28;20052;-69
2022/07/14 06:40:20;;;;;;;6.18;0.60;;;18.30;99.90;;;;;;5076690;28;20099;-69
2022/07/14 06:42:47;;;;;;;3.38;0.20;;;18.20;99.90;;;;;;5057073;28;20078;-69
2022/07/14 06:45:13;;;;;;;2.50;0.20;;;18.40;99.90;;;;;;5058642;28;20630;-69
2022/07/14 06:47:39;;;;;;;4.13;0.30;;;18.30;99.90;;;;;;5058077;28;20593;-70
2022/07/14 06:50:06;;;;;;;2.78;0.20;;;18.40;99.90;;;;;;5056143;28;20330;-70
2022/07/14 06:52:32;;;;;;;3.28;0.22;;;18.50;99.90;;;;;;5058305;28;20052;-69
2022/07/14 06:54:59;;;;;;;3.47;0.20;;;18.50;99.90;;;;;;5055721;28;20040;-72
2022/07/14 06:57:25;;;;;;;4.25;0.20;;;18.60;99.90;;;;;;5055575;28;20051;-69
2022/07/14 06:59:51;;;;;;;2.88;0.30;;;18.80;99.90;;;;;;5051913;28;20056;-69
2022/07/14 07:02:19;;;;;;;3.10;0.22;;;18.80;99.90;;;;;;5056773;28;20060;-68
2022/07/14 07:04:47;;;;;;;2.92;0.20;;;18.90;99.90;;;;;;5038638;28;20081;-70
2022/07/14 07:07:13;;;;;;;3.38;0.20;;;19.20;99.90;;;;;;5056765;28;20036;-67
2022/07/14 07:09:42;;;;;;;2.88;0.30;;;19.30;99.90;;;;;;5040551;28;20028;-70
2022/07/14 07:12:08;;;;;;;3.72;0.30;;;19.30;99.90;;;;;;5022812;28;20079;-68
2022/07/14 07:14:35;;;;;;;2.83;0.20;;;19.10;99.90;;;;;;5034881;28;20044;-69
2022/07/14 07:17:00;;;;;;;4.13;0.45;;;19.50;99.90;;;;;;5055556;28;20080;-68
2022/07/14 07:19:26;;;;;;;4.07;0.20;;;19.90;99.90;;;;;;5058098;28;20155;-69
2022/07/14 07:21:52;;;;;;;3.75;0.20;;;19.70;99.90;;;;;;5054760;28;20831;-68
2022/07/14 07:24:18;;;;;;;4.28;0.40;;;19.90;99.90;;;;;;5035652;28;20044;-68
2022/07/14 07:26:43;;;;;;;2.08;0.20;;;19.80;99.90;;;;;;5041740;28;20048;-70
2022/07/14 07:29:09;;;;;;;2.38;0.20;;;19.50;99.90;;;;;;5056937;28;20040;-69
2022/07/14 07:31:35;;;;;;;4.47;0.30;;;19.40;99.90;;;;;;5058448;28;20044;-68
2022/07/14 07:34:01;;;;;;;5.15;0.30;;;19.30;99.90;;;;;;5056613;28;20464;-69
2022/07/14 07:36:27;;;;;;;3.65;0.20;;;19.10;99.90;;;;;;5059564;28;20063;-73
2022/07/14 07:38:53;;;;;;;3.03;0.30;;;18.80;99.90;;;;;;5053743;28;20040;-70
2022/07/14 07:41:19;;;;;;;3.30;0.20;;;18.90;99.90;;;;;;5052418;28;20098;-67
2022/07/14 07:43:44;;;;;;;1.25;0.10;;;19.00;99.90;;;;;;5056437;28;20442;-69
2022/07/14 07:46:10;;;;;;;2.38;0.20;;;19.00;99.90;;;;;;5054046;28;20048;-68
2022/07/14 07:48:36;;;;;;;2.72;0.20;;;19.20;99.90;;;;;;5040932;28;20170;-70
2022/07/14 07:51:02;;;;;;;1.70;0.10;;;19.60;99.90;;;;;;5037595;28;20044;-73
2022/07/14 07:53:28;;;;;;;2.95;0.20;;;20.00;99.90;;;;;;5006825;28;20040;-69
2022/07/14 07:55:53;;;;;;;3.10;0.20;;;19.80;99.90;;;;;;5054267;28;20504;-70
2022/07/14 07:58:20;;;;;;;3.13;0.20;;;20.00;99.90;;;;;;5054201;28;20040;-68
2022/07/14 08:00:47;;;;;;;3.53;0.20;;;19.60;99.90;;;;;;5038631;28;20063;-68
2022/07/14 08:03:14;;;;;;;2.63;0.20;;;20.00;99.90;;;;;;5038689;28;20079;-68
2022/07/14 08:05:43;;;;;;;2.10;0.17;;;20.20;99.90;;;;;;5039078;28;20036;-67
2022/07/14 08:08:08;;;;;;;2.60;0.13;;;20.40;99.90;;;;;;5038783;28;20547;-66
2022/07/14 08:10:38;;;;;;;2.45;0.10;;;20.50;99.90;;;;;;5037792;28;20043;-69
2022/07/14 08:13:04;;;;;;;2.47;0.20;;;20.20;99.90;;;;;;5054550;28;20043;-69
2022/07/14 08:15:30;;;;;;;3.22;0.20;;;20.60;99.90;;;;;;5035942;28;20607;-69
2022/07/14 08:17:56;;;;;;;1.55;0.10;;;20.70;99.90;;;;;;5052310;28;20106;-68
2022/07/14 08:20:21;;;;;;;2.28;0.20;;;20.60;99.90;;;;;;5052205;28;20490;-68
2022/07/14 08:22:47;;;;;;;3.17;0.20;;;20.50;99.90;;;;;;5052757;28;20550;-68
2022/07/14 08:25:13;;;;;;;2.97;0.30;;;20.40;99.90;;;;;;5053860;28;20147;-71
2022/07/14 08:27:38;;;;;;;1.98;0.10;;;20.60;99.90;;;;;;5053713;28;20598;-68
2022/07/14 08:30:05;;;;;;;3.13;0.20;;;20.70;99.90;;;;;;5057291;28;20051;-68
2022/07/14 08:32:45;;;;;;;3.63;0.20;;;20.50;99.90;;;;;;5053117;28;20381;-70
2022/07/14 08:35:13;;;;;;;2.53;0.20;;;20.40;99.90;;;;;;5054484;28;20051;-70
2022/07/14 08:37:40;;;;;;;3.38;0.20;;;20.10;99.90;;;;;;5038183;28;20066;-69
2022/07/14 08:40:09;;;;;;;1.92;0.25;;;20.00;99.90;;;;;;5054904;28;20032;-69
2022/07/14 08:42:36;;;;;;;1.45;0.20;;;20.00;99.90;;;;;;5054402;28;20044;-69
2022/07/14 08:45:07;;;;;;;2.45;0.30;;;20.60;99.90;;;;;;5050514;28;20139;-69
2022/07/14 08:47:34;;;;;;;3.28;0.22;;;20.80;99.90;;;;;;5054791;28;20317;-70
2022/07/14 08:50:01;;;;;;;1.73;0.10;;;20.80;99.90;;;;;;5051816;28;20926;-69
2022/07/14 08:52:27;;;;;;;2.55;0.20;;;20.70;99.90;;;;;;5053509;28;20812;-70
2022/07/14 08:54:54;;;;;;;1.80;0.20;;;20.40;99.90;;;;;;5055082;28;20032;-69
2022/07/14 08:57:19;;;;;;;1.90;0.15;;;20.40;99.90;;;;;;5055650;28;20075;-69
2022/07/14 08:59:45;;;;;;;2.10;0.10;;;20.40;99.90;;;;;;5055665;28;20487;-68
2022/07/14 09:02:10;;;;;;;1.52;0.20;;;20.40;99.90;;;;;;5054187;28;20052;-68
2022/07/14 09:04:36;;;;;;;1.23;0.20;;;20.40;99.90;;;;;;5069894;28;20063;-68
2022/07/14 09:07:02;;;;;;;1.10;0.10;;;20.50;99.90;;;;;;5055399;28;20045;-69
2022/07/14 09:09:34;;;;;;;1.60;0.10;;;20.30;99.90;;;;;;5070907;28;20105;-70
2022/07/14 09:12:10;;;;;;;1.65;0.10;;;20.20;99.90;;;;;;5052577;28;20071;-69
2022/07/14 09:17:29;;;;;;;1.98;0.20;;;20.30;99.90;;;;;;5057866;28;20052;-69
2022/07/14 09:20:12;;;;;;;5.22;0.17;;;20.40;99.90;;;;;;5056909;28;20059;-69
2022/07/14 09:22:40;;;;;;;2.13;0.20;;;20.70;99.90;;;;;;5053912;28;20036;-69
2022/07/14 09:25:15;;;;;;;2.20;0.13;;;20.70;99.90;;;;;;5055952;28;20107;-69
2022/07/14 09:27:41;;;;;;;2.65;0.20;;;20.40;99.90;;;;;;5053106;28;20047;-70
2022/07/14 09:30:11;;;;;;;3.38;0.20;;;19.90;99.90;;;;;;5054950;28;20047;-70
2022/07/14 09:32:51;;;;;;;1.38;0.10;;;19.80;99.90;;;;;;5054920;28;20375;-73
2022/07/14 09:35:38;;;;;;;1.80;0.10;;;20.00;99.90;;;;;;5057972;28;20056;-71
2022/07/14 09:38:22;;;;;;;2.50;0.10;;;20.10;99.90;;;;;;5055058;28;20048;-69
2022/07/14 09:40:50;;;;;;;1.17;0.10;;;20.30;99.90;;;;;;5032250;28;20717;-69
2022/07/14 09:43:17;;;;;;;1.30;0.20;;;20.60;99.90;;;;;;5051467;28;20067;-69
2022/07/14 09:45:49;;;;;;;5.78;0.25;;;20.60;99.90;;;;;;5052977;28;20059;-72
2022/07/14 09:48:17;;;;;;;2.50;0.20;;;21.00;99.90;;;;;;5053653;28;20596;-69
2022/07/14 09:50:57;;;;;;;1.90;0.10;;;20.60;99.90;;;;;;5053678;28;20048;-72
2022/07/14 09:53:35;;;;;;;1.75;0.10;;;20.90;99.90;;;;;;5033115;28;20672;-69
2022/07/14 09:56:06;;;;;;;1.83;0.20;;;20.70;99.90;;;;;;5053811;28;20040;-71
2022/07/14 09:58:44;;;;;;;1.55;0.17;;;21.30;99.90;;;;;;5057440;28;20112;-70
2022/07/14 10:01:12;;;;;;;3.95;0.20;;;21.70;99.90;;;;;;5055059;28;20054;-70
2022/07/14 10:03:42;;;;;;;1.65;0.10;;;22.10;99.90;;;;;;5057079;28;20166;-69
2022/07/14 10:06:09;;;;;;;1.88;0.10;;;21.60;99.90;;;;;;5055812;28;20032;-72
2022/07/14 10:08:40;;;;;;;2.95;0.22;;;21.60;99.90;;;;;;5057151;28;20050;-72
2022/07/14 10:11:06;;;;;;;1.85;0.10;;;21.60;99.90;;;;;;5053484;28;20078;-72
2022/07/14 10:13:32;;;;;;;1.35;0.17;;;21.40;99.90;;;;;;5057609;28;20131;-70
2022/07/14 10:15:59;;;;;;;2.20;0.17;;;21.30;99.90;;;;;;5055966;28;20041;-71
2022/07/14 10:18:26;;;;;;;4.20;0.20;;;21.00;99.90;;;;;;5035643;28;20053;-72
2022/07/14 10:20:57;;;;;;;3.08;0.10;;;21.20;99.90;;;;;;5053272;28;20032;-69
2022/07/14 10:23:24;;;;;;;1.30;0.13;;;21.00;99.90;;;;;;5056022;28;20497;-69
2022/07/14 10:25:53;;;;;;;1.38;0.20;;;20.80;99.90;;;;;;5053768;28;20048;-72
2022/07/14 10:28:20;;;;;;;1.77;0.20;;;20.70;99.90;;;;;;5042151;28;20076;-71
2022/07/14 10:31:19;;;;;;;1.17;0.15;;;21.00;99.90;;;;;;5042185;28;20044;-71
2022/07/14 10:33:53;;;;;;;2.55;0.20;;;20.90;99.90;;;;;;5040614;28;20037;-72
2022/07/14 10:36:26;;;;;;;1.35;0.20;;;21.30;99.90;;;;;;5042063;28;20156;-73
2022/07/14 10:39:13;;;;;;;3.65;0.20;;;21.30;99.90;;;;;;5056691;28;20127;-72
2022/07/14 10:42:17;;;;;;;2.15;0.20;;;20.50;99.90;;;;;;5070186;28;20036;-69
2022/07/14 10:44:44;;;;;;;;;;;20.90;99.90;;;;;;5037747;28;20613;-69
2022/07/14 10:47:14;;;;;;;2.58;0.20;;;20.50;99.90;;;;;;5055005;28;20535;-71
2022/07/14 10:50:00;;;;;;;2.08;0.20;;;20.50;99.90;;;;;;5038442;28;20264;-72
2022/07/14 10:52:28;;;;;;;3.15;0.20;;;21.20;99.90;;;;;;5054199;28;20139;-70
2022/07/14 10:55:13;;;;;;;3.08;0.20;;;21.00;99.90;;;;;;5034476;28;20059;-70
2022/07/14 10:57:59;;;;;;;1.80;0.20;;;20.80;99.90;;;;;;5043217;28;20040;-72
2022/07/14 11:00:55;;;;;;;7.78;0.30;;;20.70;99.90;;;;;;5036779;28;20526;-69
2022/07/14 11:03:39;;;;;;;1.60;0.20;;;20.50;99.90;;;;;;5054609;28;20057;-69
2022/07/14 11:06:08;;;;;;;2.13;0.10;;;20.10;99.90;;;;;;5049105;28;20548;-69
2022/07/14 11:08:40;;;;;;;2.38;0.20;;;20.40;99.90;;;;;;5055699;28;20049;-70
2022/07/14 11:11:16;;;;;;;1.55;0.10;;;20.20;99.90;;;;;;5052387;28;20086;-71
2022/07/14 11:14:13;;;;;;;3.15;0.20;;;20.40;99.90;;;;;;5053434;28;20040;-71
2022/07/14 11:16:50;;;;;;;3.55;0.45;;;20.20;99.90;;;;;;5032081;28;20055;-70
2022/07/14 11:19:33;;;;;;;4.13;0.20;;;20.10;99.90;;;;;;5052061;28;20090;-70
2022/07/14 11:22:19;;;;;;;2.95;0.38;;;20.10;99.90;;;;;;5034992;28;20055;-71
2022/07/14 11:24:56;;;;;;;2.08;0.28;;;20.20;99.90;;;;;;5035658;28;20131;-69
2022/07/14 11:27:40;;;;;;;2.22;0.25;;;20.50;99.90;;;;;;5034344;28;20689;-69
2022/07/14 11:30:27;;;;;;;5.60;0.20;;;20.10;99.90;;;;;;5057595;28;20047;-70
2022/07/14 11:33:11;;;;;;;3.00;0.20;;;20.50;99.90;;;;;;5055136;28;20708;-70
2022/07/14 11:38:38;;;;;;;2.97;0.20;;;20.60;99.90;;;;;;5058610;28;21138;-72
2022/07/14 11:41:09;;;;;;;5.75;0.30;;;20.60;99.90;;;;;;5035473;28;20056;-72
2022/07/14 11:43:40;;;;;;;3.00;0.13;;;20.90;99.90;;;;;;5057622;28;20535;-74
2022/07/14 11:46:09;;;;;;;4.88;0.30;;;21.30;99.90;;;;;;5069898;28;20649;-72
2022/07/14 11:48:41;;;;;;;2.40;0.40;;;21.20;99.90;;;;;;5053949;28;21055;-69
2022/07/14 11:51:10;;;;;;;3.70;0.20;;;21.40;99.90;;;;;;5024483;28;20048;-69
2022/07/14 11:53:37;;;;;;;3.63;0.30;;;21.50;99.90;;;;;;5055272;28;20048;-72
2022/07/14 11:56:06;;;;;;;2.05;0.20;;;21.80;99.90;;;;;;5055517;28;20052;-71
2022/07/14 11:58:32;;;;;;;2.53;0.17;;;21.50;99.90;;;;;;5059871;28;20052;-72
2022/07/14 12:01:00;;;;;;;1.85;0.20;;;22.00;99.90;;;;;;5037348;28;20139;-70
2022/07/14 12:03:26;;;;;;;3.80;0.20;;;21.30;99.90;;;;;;5051274;28;20644;-72
2022/07/14 12:05:55;;;;;;;2.10;0.20;;;20.90;99.90;;;;;;5056416;28;20041;-71
2022/07/14 12:08:26;;;;;;;2.03;0.15;;;20.50;99.90;;;;;;5054756;28;20535;-71
2022/07/14 12:10:52;;;;;;;1.55;0.20;;;20.30;99.90;;;;;;5038163;28;20051;-71
2022/07/14 12:13:19;;;;;;;2.83;0.20;;;20.40;99.90;;;;;;5037401;28;20040;-71
2022/07/14 12:15:46;;;;;;;3.88;0.20;;;20.40;99.90;;;;;;5055926;28;20638;-71
2022/07/14 12:18:13;;;;;;;2.85;0.40;;;20.80;99.90;;;;;;5056463;28;20044;-70
2022/07/14 12:20:46;;;;;;;2.38;0.20;;;21.00;99.90;;;;;;5037537;28;20609;-70
2022/07/14 12:23:14;;;;;;;2.60;0.20;;;21.60;99.90;;;;;;5053829;28;20101;-69
2022/07/14 12:25:43;;;;;;;2.15;0.20;;;22.30;99.90;;;;;;5051055;28;20603;-70
2022/07/14 12:28:11;;;;;;;2.60;0.20;;;22.40;99.90;;;;;;5058165;28;20040;-69
2022/07/14 12:30:45;;;;;;;2.95;0.20;;;22.20;99.90;;;;;;5058260;28;21519;-70
2022/07/14 12:33:13;;;;;;;3.30;0.20;;;21.40;99.90;;;;;;5052246;28;20054;-70
2022/07/14 12:35:44;;;;;;;2.30;0.25;;;21.80;99.90;;;;;;5052745;28;20479;-71
2022/07/14 12:38:11;;;;;;;3.13;0.20;;;22.20;99.90;;;;;;5049355;28;20045;-69
2022/07/14 12:40:38;;;;;;;2.67;0.20;;;22.40;99.90;;;;;;5048093;28;20123;-70
2022/07/14 12:43:04;;;;;;;3.72;0.20;;;22.50;99.90;;;;;;5033003;28;20078;-69
2022/07/14 12:45:30;;;;;;;3.88;0.30;;;23.10;99.90;;;;;;5049218;28;20075;-69
2022/07/14 12:48:00;;;;;;;2.33;0.40;;;23.60;99.90;;;;;;5049791;28;20068;-72
2022/07/14 12:50:28;;;;;;;3.10;0.22;;;23.70;95.70;;;;;;5054356;28;20570;-70
2022/07/14 12:52:56;;;;;;;2.97;0.30;;;23.30;94.50;;;;;;5053424;28;20861;-69
2022/07/14 12:55:32;;;;;;;3.67;0.30;;;22.90;96.90;;;;;;5055128;28;20044;-68
2022/07/14 12:58:09;;;;;;;2.72;0.20;;;22.80;99.90;;;;;;5050468;28;20048;-69
2022/07/14 13:00:39;;;;;;;3.05;0.20;;;22.80;99.90;;;;;;5054190;28;20147;-71